Terminal Aerodrome Forecast
Issued by NWS

Home | Current Version | Previous Version | Text Only | Print | Product List | Glossary On
Versions: 1 2 3 4 5 6 7 8 9 10 11 12 13 14 15 16 17
958
FTAK31 PAJN 290521
TAFAJN
TAF
PAJN 290521Z 2906/3006 08005KT P6SM -SHRA SCT015 BKN040 OVC060
     FM290900 09007KT P6SM -SHRA BKN025 OVC035
     FM292100 11008KT P6SM -SHRA SCT025 OVC035=

USA.gov is the U.S. government's official web portal to all federal, state and local government web resources and services.